Damgracht — PBOF — position and weather

sailwx.info

Track history (hours):
 
Tides and Currents Weather Stations Pressure Air Temp Water Temp Dewpoint Dewpoint Depression Visibility Wind Speed Wind Dir Waves Ship Positions

Damgracht

Last reported at 2017-Oct-02 01:32 UTC. Time now 2017-Oct-18 09:42 UTC.
Position N 34°30' E 030°09'.
Warning: this ship's position is 16 days out of date.

Length 157 m; draft 6.9 m.

Type: Cargo ship. MMSI: 245955000.

Date/timePositionNaut miles runAvg speedWind from/ knotsBaromVisibWave heightAir tempDewpointWater temp
2017-Oct-02 01:32N 34°30' E 030°09'217.4
2017-Oct-02 01:25N 34°31' E 030°08'  
2017-Sep-29 12:31N 35°10' E 030°20'016.3
2017-Sep-29 12:30N 35°09' E 030°21'1416.2
2017-Sep-29 11:37N 34°59' E 030°33'216.5
2017-Sep-29 11:31N 34°58' E 030°34'816.6
2017-Sep-29 11:01N 34°52' E 030°41'816.7
2017-Sep-29 10:30N 34°46' E 030°48'25916.5
2017-Sep-28 18:48N 31°52' E 034°37'  
2017-Sep-25 18:00N 35°54' E 021°18'24916.1 130 / 131017.810.8 25.419.924.9
2017-Sep-25 02:29N 37°32' E 016°32'817.3
2017-Sep-25 02:00N 37°35' E 016°22'916.8
2017-Sep-25 01:28N 37°40' E 016°13'817.1
2017-Sep-25 01:00N 37°43' E 016°03'917.2
2017-Sep-25 00:30N 37°47' E 015°54'917.4
2017-Sep-25 00:00N 37°50' E 015°44'817.0
2017-Sep-24 23:30N 37°57' E 015°36'917.0
2017-Sep-24 23:00N 38°05' E 015°34'917.5
2017-Sep-24 22:30N 38°14' E 015°36'714.9
2017-Sep-24 22:00N 38°21' E 015°39'816.7
2017-Sep-24 21:30N 38°27' E 015°33'917.6
2017-Sep-24 21:00N 38°33' E 015°25'917.5
2017-Sep-24 20:30N 38°39' E 015°17'4116.5
2017-Sep-24 18:00N 39°06' E 014°36'32417.1 330 / 261020.310.8 23.120.023.9
2017-Sep-23 22:59N 42°59' E 009°37'816.9
2017-Sep-23 22:30N 43°07' E 009°34'917.2
2017-Sep-23 22:01N 43°15' E 009°31'917.4
2017-Sep-23 21:31N 43°23' E 009°27'917.4
2017-Sep-23 21:00N 43°31' E 009°22'917.0
2017-Sep-23 20:30N 43°39' E 009°18'917.3
2017-Sep-23 20:01N 43°47' E 009°14'40 1.0
2017-Sep-22 01:55N 44°24' E 008°54'  
Track history (hours):
 
Tides and Currents Weather Stations Pressure Air Temp Water Temp Dewpoint Dewpoint Depression Visibility Wind Speed Wind Dir Waves Ship Positions

Damgracht

Last reported at 2017-Oct-02 01:32 UTC. Time now 2017-Oct-18 09:42 UTC.
Position N 34°30' E 030°09'.
Warning: this ship's position is 16 days out of date.

Length 157 m; draft 6.9 m.

Type: Cargo ship. MMSI: 245955000.

Date/timePositionNaut miles runAvg speedWind from/ knotsBaromVisibWave heightAir tempDewpointWater temp
2017-Oct-02 01:32N 34°30' E 030°09'217.4
2017-Oct-02 01:25N 34°31' E 030°08'  
2017-Sep-29 12:31N 35°10' E 030°20'016.3
2017-Sep-29 12:30N 35°09' E 030°21'1416.2
2017-Sep-29 11:37N 34°59' E 030°33'216.5
2017-Sep-29 11:31N 34°58' E 030°34'816.6
2017-Sep-29 11:01N 34°52' E 030°41'816.7
2017-Sep-29 10:30N 34°46' E 030°48'25916.5
2017-Sep-28 18:48N 31°52' E 034°37'  
2017-Sep-25 18:00N 35°54' E 021°18'24916.1 130 / 131017.810.8 25.419.924.9
2017-Sep-25 02:29N 37°32' E 016°32'817.3
2017-Sep-25 02:00N 37°35' E 016°22'916.8
2017-Sep-25 01:28N 37°40' E 016°13'817.1
2017-Sep-25 01:00N 37°43' E 016°03'917.2
2017-Sep-25 00:30N 37°47' E 015°54'917.4
2017-Sep-25 00:00N 37°50' E 015°44'817.0
2017-Sep-24 23:30N 37°57' E 015°36'917.0
2017-Sep-24 23:00N 38°05' E 015°34'917.5
2017-Sep-24 22:30N 38°14' E 015°36'714.9
2017-Sep-24 22:00N 38°21' E 015°39'816.7
2017-Sep-24 21:30N 38°27' E 015°33'917.6
2017-Sep-24 21:00N 38°33' E 015°25'917.5
2017-Sep-24 20:30N 38°39' E 015°17'4116.5
2017-Sep-24 18:00N 39°06' E 014°36'32417.1 330 / 261020.310.8 23.120.023.9
2017-Sep-23 22:59N 42°59' E 009°37'816.9
2017-Sep-23 22:30N 43°07' E 009°34'917.2
2017-Sep-23 22:01N 43°15' E 009°31'917.4
2017-Sep-23 21:31N 43°23' E 009°27'917.4
2017-Sep-23 21:00N 43°31' E 009°22'917.0
2017-Sep-23 20:30N 43°39' E 009°18'917.3
2017-Sep-23 20:01N 43°47' E 009°14'40 1.0
2017-Sep-22 01:55N 44°24' E 008°54'  

Dump ship's entire track history